^^
Mint Hill Weather Station Historical Data
 
Daily Summary for August 01, 2014 Units:  English    Metric   Both
« Previous Day
Next Day »
Daily Weekly Monthly Yearly Custom
  Current: High: Low: Average:
Temperature: 66.0 °F 68.8 °F 65.9 °F 67.1 °F
Dew Point: 65.4 °F 67.6 °F 65.3 °F 66.4 °F
Humidity: 98% 98% 96% 98%
Wind Speed: 0.4mph 1.4mph 0.0mph 0.1mph
Wind Gust: 3.5mph 3.5mph - -
WindSSE - - SE
Pressure: 30.08 in 30.12 in 30.05 in -
Precipitation: 0.97 in      
Historical Graphs
 
 
Tabular Data for August 01, 2014
Time Temperature Dew Point Pressure Wind Wind Speed Wind Gust Humidity Rainfall Rate (Hourly) solar Conditions
00:01 68.8 °F 67.6 °F 30.12 in Calm     96% 0.01 in 0.0 W/m2 RA
00:02 68.8 °F 67.6 °F 30.12 in Calm     96% 0.01 in 0.0 W/m2 RA
00:07 68.7 °F 67.5 °F 30.12 in Calm     96% 0.01 in 0.0 W/m2 RA
00:12 68.7 °F 67.5 °F 30.11 in Calm     96% 0.01 in 0.0 W/m2 OVC
00:17 68.6 °F 67.4 °F 30.12 in Calm     96% 0.01 in 0.0 W/m2 OVC
00:27 68.5 °F 67.3 °F 30.12 in Calm     96% 0.00 in 0.0 W/m2 OVC
00:32 68.4 °F 67.2 °F 30.11 in Calm     96% 0.00 in 0.0 W/m2 OVC
00:37 68.3 °F 67.1 °F 30.11 in Calm     96% 0.00 in 0.0 W/m2 OVC
00:42 68.4 °F 67.2 °F 30.11 in Calm     96% 0.00 in 0.0 W/m2 OVC
00:47 68.3 °F 67.1 °F 30.10 in Calm     96% 0.00 in 0.0 W/m2 OVC
00:52 68.3 °F 67.1 °F 30.10 in Calm     96% 0.00 in 0.0 W/m2 OVC
00:57 68.3 °F 67.1 °F 30.10 in Calm     96% 0.00 in 0.0 W/m2 OVC
01:02 68.3 °F 67.1 °F 30.10 in Calm     96% 0.00 in 0.0 W/m2 OVC
01:07 68.3 °F 67.1 °F 30.10 in Calm     96% 0.00 in 0.0 W/m2 OVC
01:12 68.3 °F 67.1 °F 30.10 in Calm     96% 0.00 in 0.0 W/m2 OVC
01:17 68.3 °F 67.1 °F 30.09 in Calm     96% 0.00 in 0.0 W/m2 OVC
01:22 68.3 °F 67.4 °F 30.09 in Calm     97% 0.00 in 0.0 W/m2 OVC
01:27 68.3 °F 67.1 °F 30.08 in Calm     96% 0.00 in 0.0 W/m2 OVC
01:32 68.3 °F 67.1 °F 30.08 in Calm     96% 0.00 in 0.0 W/m2 OVC
01:37 68.2 °F 67.0 °F 30.08 in Calm     96% 0.00 in 0.0 W/m2 OVC
01:42 68.2 °F 67.0 °F 30.08 in Calm     96% 0.00 in 0.0 W/m2 OVC
01:47 68.2 °F 67.3 °F 30.08 in Calm     97% 0.00 in 0.0 W/m2 OVC
01:52 68.1 °F 67.2 °F 30.08 in Calm     97% 0.02 in 0.0 W/m2 RA
01:57 68.1 °F 67.2 °F 30.09 in Calm     97% 0.10 in 0.0 W/m2 RA
02:02 68.2 °F 67.3 °F 30.09 in Calm     97% 0.32 in 0.0 W/m2 -RA
02:07 68.1 °F 67.2 °F 30.09 in NNW 0.1 mph 1.1 mph 97% 0.42 in 0.0 W/m2 -RA
02:12 67.9 °F 67.0 °F 30.08 in Calm     97% 0.42 in 0.0 W/m2 -RA
02:17 67.8 °F 66.9 °F 30.08 in Calm     97% 0.43 in 0.0 W/m2 -RA
02:22 67.8 °F 66.9 °F 30.08 in Calm     97% 0.43 in 0.0 W/m2 -RA
02:27 67.7 °F 66.8 °F 30.08 in Calm     97% 0.43 in 0.0 W/m2 -RA
02:32 67.8 °F 66.9 °F 30.08 in Calm     97% 0.43 in 0.0 W/m2 -RA
02:37 67.7 °F 66.8 °F 30.08 in Calm     97% 0.43 in 0.0 W/m2 -RA
02:42 67.7 °F 66.8 °F 30.08 in Calm     97% 0.44 in 0.0 W/m2 -RA
02:48 67.7 °F 66.8 °F 30.08 in Calm     97% 0.44 in 0.0 W/m2 -RA
02:53 67.7 °F 66.8 °F 30.08 in Calm     97% 0.42 in 0.0 W/m2 -RA
02:58 67.7 °F 66.8 °F 30.08 in Calm     97% 0.38 in 0.0 W/m2 -RA
03:03 67.7 °F 66.8 °F 30.08 in Calm     97% 0.18 in 0.0 W/m2 OVC
03:08 67.7 °F 66.8 °F 30.08 in Calm     97% 0.04 in 0.0 W/m2 OVC
03:13 67.6 °F 66.7 °F 30.08 in Calm     97% 0.02 in 0.0 W/m2 OVC
03:18 67.7 °F 66.8 °F 30.07 in Calm     97% 0.01 in 0.0 W/m2 OVC
03:23 67.7 °F 66.8 °F 30.07 in Calm     97% 0.01 in 0.0 W/m2 OVC
03:28 67.7 °F 66.8 °F 30.07 in Calm     97% 0.01 in 0.0 W/m2 OVC
03:33 67.6 °F 67.0 °F 30.07 in Calm     98% 0.01 in 0.0 W/m2 OVC
03:38 67.5 °F 66.6 °F 30.07 in Calm     97% 0.03 in 0.0 W/m2 RA
03:43 67.4 °F 66.8 °F 30.06 in Calm     98% 0.05 in 0.0 W/m2 RA
03:48 67.4 °F 66.8 °F 30.06 in Calm     98% 0.06 in 0.0 W/m2 RA
03:53 67.4 °F 66.8 °F 30.06 in Calm     98% 0.06 in 0.0 W/m2 RA
03:58 67.4 °F 66.8 °F 30.06 in Calm     98% 0.06 in 0.0 W/m2 OVC
04:03 67.4 °F 66.8 °F 30.06 in Calm     98% 0.06 in 0.0 W/m2 OVC
04:08 67.3 °F 66.7 °F 30.05 in Calm     98% 0.06 in 0.0 W/m2 OVC
04:13 67.2 °F 66.6 °F 30.05 in Calm     98% 0.06 in 0.0 W/m2 OVC
04:18 67.1 °F 66.5 °F 30.05 in Calm     98% 0.06 in 0.0 W/m2 OVC
04:23 67.0 °F 66.4 °F 30.05 in Calm     98% 0.06 in 0.0 W/m2 OVC
04:28 66.8 °F 66.2 °F 30.05 in Calm     98% 0.06 in 0.0 W/m2 OVC
04:33 66.8 °F 66.2 °F 30.06 in Calm     98% 0.06 in 0.0 W/m2 OVC
04:38 66.7 °F 66.1 °F 30.06 in Calm     98% 0.05 in 0.0 W/m2 RA
04:43 66.6 °F 66.0 °F 30.05 in Calm     98% 0.07 in 0.0 W/m2 RA
04:48 66.3 °F 65.7 °F 30.05 in WNW 0.1 mph 1.1 mph 98% 0.26 in 0.0 W/m2 RA
04:53 66.1 °F 65.5 °F 30.05 in Calm     98% 0.28 in 0.0 W/m2 RA
04:58 66.0 °F 65.4 °F 30.06 in Calm     98% 0.32 in 0.0 W/m2 RA
05:03 66.0 °F 65.4 °F 30.06 in Calm     98% 0.33 in 0.0 W/m2 RA
05:08 65.9 °F 65.3 °F 30.06 in Calm     98% 0.33 in 0.0 W/m2 RA
05:13 65.9 °F 65.3 °F 30.06 in Calm     98% 0.33 in 0.0 W/m2 OVC
05:18 66.0 °F 65.4 °F 30.06 in Calm     98% 0.33 in 0.0 W/m2 OVC
05:23 66.1 °F 65.5 °F 30.05 in Calm     98% 0.33 in 0.0 W/m2 OVC
05:28 66.1 °F 65.5 °F 30.06 in Calm     98% 0.33 in 0.0 W/m2 OVC
05:33 66.1 °F 65.5 °F 30.06 in Calm     98% 0.33 in 0.0 W/m2 OVC
05:38 66.3 °F 65.7 °F 30.05 in Calm     98% 0.32 in 0.0 W/m2 OVC
05:43 66.3 °F 65.7 °F 30.05 in Calm     98% 0.27 in 0.0 W/m2 OVC
05:48 66.3 °F 65.7 °F 30.05 in Calm     98% 0.07 in 0.0 W/m2 OVC
05:53 66.3 °F 65.7 °F 30.05 in Calm     98% 0.05 in 0.0 W/m2 OVC
05:58 66.4 °F 65.8 °F 30.05 in Calm     98% 0.01 in 0.0 W/m2 OVC
06:03 66.3 °F 65.7 °F 30.05 in Calm     98% 0.00 in 0.0 W/m2 OVC
06:08 66.3 °F 65.7 °F 30.06 in Calm     98% 0.00 in 0.0 W/m2 OVC
06:13 66.3 °F 65.7 °F 30.05 in Calm     98% 0.00 in 0.0 W/m2 OVC
06:18 66.3 °F 65.7 °F 30.06 in Calm     98% 0.00 in 0.0 W/m2 OVC
06:23 66.3 °F 65.7 °F 30.05 in Calm     98% 0.01 in 0.0 W/m2 RA
06:28 66.3 °F 65.7 °F 30.06 in Calm     98% 0.01 in 0.0 W/m2 RA
06:33 66.2 °F 65.6 °F 30.06 in Calm     98% 0.01 in 0.0 W/m2 OVC
06:38 66.3 °F 65.7 °F 30.06 in Calm     98% 0.01 in 0.0 W/m2 OVC
06:43 66.3 °F 65.7 °F 30.06 in Calm     98% 0.01 in 0.0 W/m2 OVC
06:48 66.4 °F 65.8 °F 30.06 in Calm     98% 0.01 in 0.0 W/m2 OVC
06:53 66.5 °F 65.9 °F 30.06 in Calm     98% 0.01 in 0.0 W/m2 OVC
06:58 66.5 °F 65.9 °F 30.06 in Calm     98% 0.01 in 6.0 W/m2 OVC
07:03 66.5 °F 65.9 °F 30.07 in Calm     98% 0.02 in 8.4 W/m2 RA
07:08 66.5 °F 65.9 °F 30.07 in Calm     98% 0.02 in 10.8 W/m2 RA
07:13 66.5 °F 65.9 °F 30.07 in Calm     98% 0.03 in 13.2 W/m2 RA
07:18 66.5 °F 65.9 °F 30.07 in Calm     98% 0.03 in 14.4 W/m2 RA
07:23 66.6 °F 66.0 °F 30.07 in Calm     98% 0.03 in 10.8 W/m2 RA
07:28 66.5 °F 65.9 °F 30.07 in Calm     98% 0.03 in 16.8 W/m2 OVC
07:33 66.5 °F 65.9 °F 30.06 in NE 0.1 mph 1.1 mph 98% 0.03 in 21.6 W/m2 OVC
07:38 66.6 °F 66.0 °F 30.07 in Calm     98% 0.03 in 19.2 W/m2 OVC
07:43 66.7 °F 66.1 °F 30.07 in Calm     98% 0.03 in 21.6 W/m2 OVC
07:48 66.7 °F 66.1 °F 30.07 in ENE 0.1 mph 1.1 mph 98% 0.03 in 16.8 W/m2 OVC
07:53 66.6 °F 66.0 °F 30.07 in Calm     98% 0.03 in 16.8 W/m2 OVC
07:58 66.7 °F 66.1 °F 30.07 in Calm     98% 0.03 in 16.8 W/m2 OVC
08:03 66.6 °F 66.0 °F 30.07 in SE 0.3 mph 1.1 mph 98% 0.02 in 13.2 W/m2 OVC
08:08 66.6 °F 66.0 °F 30.08 in SE 1.4 mph 3.5 mph 98% 0.04 in 14.4 W/m2 RA
08:13 66.6 °F 66.0 °F 30.07 in SE 0.4 mph 2.3 mph 98% 0.03 in 64.8 W/m2 RA
08:18 66.7 °F 66.1 °F 30.08 in SE 0.3 mph 1.1 mph 98% 0.02 in 30.0 W/m2 OVC
08:24 66.8 °F 66.2 °F 30.08 in SE 0.2 mph 1.1 mph 98% 0.02 in 16.8 W/m2 OVC
08:29 66.7 °F 66.1 °F 30.08 in Calm   1.1 mph 98% 0.02 in 14.4 W/m2 OVC
08:34 66.8 °F 66.2 °F 30.08 in East 0.6 mph 1.1 mph 98% 0.02 in 16.8 W/m2 OVC
08:39 66.9 °F 66.3 °F 30.08 in NW 1.0 mph 3.5 mph 98% 0.02 in 22.8 W/m2 OVC
08:44 66.9 °F 66.3 °F 30.08 in East 1.2 mph 3.5 mph 98% 0.03 in 31.2 W/m2 RA
08:49 66.8 °F 66.2 °F 30.08 in East 0.1 mph 1.1 mph 98% 0.03 in 22.8 W/m2 RA
08:54 66.8 °F 66.2 °F 30.08 in Calm     98% 0.03 in 16.8 W/m2 OVC
08:59 66.8 °F 66.2 °F 30.08 in ESE 0.3 mph 1.1 mph 98% 0.03 in 16.8 W/m2 OVC
09:04 66.7 °F 66.1 °F 30.08 in ENE 1.3 mph 3.5 mph 98% 0.03 in 33.6 W/m2 -RA
09:09 66.6 °F 66.0 °F 30.08 in ESE 0.7 mph 2.3 mph 98% 0.01 in 25.2 W/m2 -RA
09:14 66.5 °F 65.9 °F 30.08 in NE 0.7 mph 1.1 mph 98% 0.02 in 38.4 W/m2 -RA
09:19 66.5 °F 65.9 °F 30.08 in SE 0.7 mph 2.3 mph 98% 0.02 in 30.0 W/m2 -RA
09:24 66.3 °F 65.7 °F 30.08 in SE 0.2 mph 1.1 mph 98% 0.02 in 48.0 W/m2 -RA
09:29 66.4 °F 65.8 °F 30.08 in SSW 0.1 mph 1.1 mph 98% 0.02 in 22.8 W/m2 -RA
09:34 66.3 °F 65.7 °F 30.08 in East 0.8 mph 2.3 mph 98% 0.03 in 22.8 W/m2 -RA
09:39 66.2 °F 65.6 °F 30.08 in South 0.5 mph 1.1 mph 98% 0.05 in 22.8 W/m2 -RA
09:44 66.0 °F 65.4 °F 30.08 in Calm   1.1 mph 98% 0.06 in 30.0 W/m2 -RA
09:49 66.0 °F 65.4 °F 30.08 in SSE 0.4 mph 3.5 mph 98% 0.07 in 31.2 W/m2 -RA
Mint Hill, North Carolina, USA
Compliments of Weather Underground